Time;durP1;ratioP1;P1;durP2;ratioP2;P2;SDS_P1;SDS_P2;PMS_P1;PMS_P2;Temp;Humidity;BMP_temperature;BMP_pressure;BME280_temperature;BME280_humidity;BME280_pressure;Samples;Min_cycle;Max_cycle;Signal;HPM_P1;HPM_P2
2021/09/20 00:01:40;;;;;;;0.73;0.60;;;10.40;99.90;;;;;;5046661;28;20210;-80
2021/09/20 00:04:05;;;;;;;0.70;0.70;;;10.40;99.90;;;;;;5046457;28;20208;-80
2021/09/20 00:06:31;;;;;;;0.97;0.73;;;10.40;99.90;;;;;;5046082;28;20237;-80
2021/09/20 00:08:57;;;;;;;0.53;0.50;;;10.40;99.90;;;;;;5046839;28;20181;-80
2021/09/20 00:11:23;;;;;;;0.50;0.50;;;10.50;99.90;;;;;;5046730;28;20194;-80
2021/09/20 00:13:48;;;;;;;0.43;0.43;;;10.40;99.90;;;;;;5050204;28;20173;-80
2021/09/20 00:16:14;;;;;;;0.67;0.60;;;10.40;99.90;;;;;;5055325;28;20246;-79
2021/09/20 00:18:40;;;;;;;0.80;0.73;;;10.40;99.90;;;;;;5055625;28;20183;-80
2021/09/20 00:21:05;;;;;;;0.50;0.43;;;10.40;99.90;;;;;;5046751;28;20671;-80
2021/09/20 00:23:31;;;;;;;0.60;0.60;;;10.40;99.90;;;;;;5044981;28;20196;-80
2021/09/20 00:25:58;;;;;;;0.80;0.60;;;10.40;99.90;;;;;;5045664;28;20269;-80
2021/09/20 00:28:25;;;;;;;0.60;0.60;;;10.40;99.90;;;;;;5045410;28;20189;-80
2021/09/20 00:30:50;;;;;;;0.50;0.50;;;10.40;99.90;;;;;;5045455;28;20179;-81
2021/09/20 00:33:16;;;;;;;0.57;0.50;;;10.40;99.90;;;;;;5045531;28;20204;-80
2021/09/20 00:35:42;;;;;;;0.30;0.30;;;10.40;99.90;;;;;;5044776;28;20236;-80
2021/09/20 00:38:07;;;;;;;0.67;0.67;;;10.40;99.90;;;;;;5044996;28;20173;-80
2021/09/20 00:40:33;;;;;;;1.23;0.53;;;10.50;99.90;;;;;;5046401;28;20176;-80
2021/09/20 00:42:59;;;;;;;0.50;0.50;;;10.40;99.90;;;;;;5045646;28;20181;-80
2021/09/20 00:45:25;;;;;;;0.60;0.60;;;10.40;99.90;;;;;;5045466;28;20197;-80
2021/09/20 00:47:51;;;;;;;0.50;0.50;;;10.40;99.90;;;;;;5044184;28;20200;-80
2021/09/20 00:50:16;;;;;;;1.23;0.57;;;10.40;99.90;;;;;;5044317;28;20180;-80
2021/09/20 00:52:42;;;;;;;0.40;0.40;;;10.40;99.90;;;;;;5045363;28;20180;-80
2021/09/20 00:55:08;;;;;;;0.60;0.60;;;10.50;99.90;;;;;;5044078;28;20642;-80
2021/09/20 00:57:34;;;;;;;3.03;0.70;;;10.40;99.90;;;;;;5045631;28;20258;-80
2021/09/20 01:00:01;;;;;;;0.60;0.60;;;10.40;99.90;;;;;;5043984;28;20197;-80
2021/09/20 01:02:26;;;;;;;0.50;0.50;;;10.40;99.90;;;;;;5043758;28;20219;-80
2021/09/20 01:04:52;;;;;;;0.60;0.60;;;10.50;99.90;;;;;;5043654;28;20172;-80
2021/09/20 01:07:18;;;;;;;0.50;0.50;;;10.40;99.90;;;;;;5045654;28;20260;-80
2021/09/20 01:09:45;;;;;;;0.60;0.50;;;10.40;99.90;;;;;;5044520;28;20205;-80
2021/09/20 01:12:11;;;;;;;0.60;0.60;;;10.50;99.90;;;;;;5044137;28;20193;-80
2021/09/20 01:14:38;;;;;;;0.50;0.50;;;10.50;99.90;;;;;;5043200;28;20717;-80
2021/09/20 01:17:05;;;;;;;0.73;0.53;;;10.50;99.90;;;;;;5043430;28;20288;-80
2021/09/20 01:19:30;;;;;;;0.60;0.60;;;10.50;99.90;;;;;;5043898;28;20190;-80
2021/09/20 01:22:02;;;;;;;0.67;0.67;;;10.50;99.90;;;;;;5043723;28;20748;-80
2021/09/20 01:24:28;;;;;;;0.83;0.50;;;10.50;99.90;;;;;;5045065;28;20227;-80
2021/09/20 01:27:02;;;;;;;0.63;0.63;;;10.50;99.90;;;;;;5044475;28;20620;-80
2021/09/20 01:29:28;;;;;;;0.60;0.60;;;10.60;99.90;;;;;;5044281;28;20624;-80
2021/09/20 01:31:54;;;;;;;2.00;0.80;;;10.50;99.90;;;;;;5044847;28;20199;-80
2021/09/20 01:34:20;;;;;;;1.00;0.60;;;10.50;99.90;;;;;;5043331;28;20178;-80
2021/09/20 01:36:46;;;;;;;0.60;0.60;;;10.50;99.90;;;;;;5043237;28;20200;-80
2021/09/20 01:39:27;;;;;;;1.30;0.70;;;10.60;99.90;;;;;;5043062;28;20197;-79
2021/09/20 01:41:54;;;;;;;0.60;0.60;;;10.50;99.90;;;;;;5042567;28;20205;-80
2021/09/20 01:44:22;;;;;;;1.07;0.60;;;10.50;99.90;;;;;;5045083;28;20209;-80
2021/09/20 01:46:49;;;;;;;0.70;0.70;;;10.50;99.90;;;;;;5045444;28;20207;-80
2021/09/20 01:49:16;;;;;;;0.60;0.60;;;10.50;99.90;;;;;;5044678;28;20178;-80
2021/09/20 01:51:42;;;;;;;2.17;0.70;;;10.50;99.90;;;;;;5042380;28;20544;-80
2021/09/20 01:54:08;;;;;;;0.70;0.70;;;10.50;99.90;;;;;;5042702;28;20174;-79
2021/09/20 01:56:34;;;;;;;0.60;0.50;;;10.50;99.90;;;;;;5042026;28;20201;-80
2021/09/20 01:59:01;;;;;;;1.07;0.87;;;10.50;99.90;;;;;;5043458;28;20627;-79
2021/09/20 02:01:27;;;;;;;0.60;0.60;;;10.50;99.90;;;;;;5044298;28;20555;-80
2021/09/20 02:03:53;;;;;;;0.80;0.80;;;10.50;99.90;;;;;;5046290;28;20175;-80
2021/09/20 02:06:20;;;;;;;0.80;0.70;;;10.50;99.90;;;;;;5042220;28;20201;-79
2021/09/20 02:08:47;;;;;;;0.60;0.60;;;10.50;99.90;;;;;;5047948;28;20535;-79
2021/09/20 02:11:13;;;;;;;1.17;0.70;;;10.50;99.90;;;;;;5044192;28;20209;-79
2021/09/20 02:13:39;;;;;;;0.73;0.70;;;10.50;99.90;;;;;;5035688;28;20186;-79
2021/09/20 02:16:05;;;;;;;0.77;0.77;;;10.50;99.90;;;;;;5044416;28;20197;-79
2021/09/20 02:18:31;;;;;;;0.80;0.80;;;10.60;99.90;;;;;;5044930;28;20189;-79
2021/09/20 02:20:56;;;;;;;0.70;0.70;;;10.60;99.90;;;;;;5043220;28;20244;-80
2021/09/20 02:23:22;;;;;;;1.17;0.70;;;10.60;99.90;;;;;;5043256;28;20628;-80
2021/09/20 02:25:48;;;;;;;0.80;0.80;;;10.60;99.90;;;;;;5045173;28;20605;-79
2021/09/20 02:28:14;;;;;;;0.60;0.60;;;10.50;99.90;;;;;;5044800;28;20223;-79
2021/09/20 02:30:40;;;;;;;1.23;0.80;;;10.60;99.90;;;;;;5044296;28;20253;-80
2021/09/20 02:33:06;;;;;;;1.30;0.80;;;10.60;99.90;;;;;;5043270;28;20269;-80
2021/09/20 02:35:32;;;;;;;0.77;0.60;;;10.60;99.90;;;;;;5044507;28;20655;-79
2021/09/20 02:37:58;;;;;;;2.10;0.80;;;10.60;99.90;;;;;;5042788;28;20267;-79
2021/09/20 02:40:24;;;;;;;1.00;0.60;;;10.60;99.90;;;;;;5042418;28;20179;-80
2021/09/20 02:42:49;;;;;;;0.70;0.70;;;10.60;99.90;;;;;;5045955;28;20696;-80
2021/09/20 02:45:15;;;;;;;0.80;0.70;;;10.60;99.90;;;;;;5047841;28;20172;-79
2021/09/20 02:47:42;;;;;;;0.80;0.80;;;10.60;99.90;;;;;;5045566;28;20205;-79
2021/09/20 02:50:10;;;;;;;1.23;0.80;;;10.60;99.90;;;;;;5046389;28;20188;-80
2021/09/20 02:52:35;;;;;;;0.70;0.67;;;10.60;99.90;;;;;;5047534;28;20178;-79
2021/09/20 02:55:02;;;;;;;0.70;0.70;;;10.60;99.90;;;;;;5047424;28;20178;-79
2021/09/20 02:57:27;;;;;;;0.97;0.60;;;10.50;99.90;;;;;;5047575;28;20198;-80
2021/09/20 02:59:53;;;;;;;1.10;1.00;;;10.50;99.90;;;;;;5047469;28;20653;-79
2021/09/20 03:02:19;;;;;;;1.00;1.00;;;10.50;99.90;;;;;;5047924;28;20202;-80
2021/09/20 03:04:44;;;;;;;0.90;0.90;;;10.50;99.90;;;;;;5047964;28;20261;-80
2021/09/20 03:07:10;;;;;;;3.50;1.00;;;10.60;99.90;;;;;;5047762;28;20221;-80
2021/09/20 03:09:36;;;;;;;1.10;1.00;;;10.60;99.90;;;;;;5045766;28;20182;-79
2021/09/20 03:12:02;;;;;;;1.30;1.20;;;10.60;99.90;;;;;;5047380;28;20204;-79
2021/09/20 03:14:28;;;;;;;1.63;1.13;;;10.60;99.90;;;;;;5047217;28;20178;-79
2021/09/20 03:16:54;;;;;;;1.20;1.10;;;10.60;99.90;;;;;;5047540;28;20276;-80
2021/09/20 03:19:19;;;;;;;1.30;1.20;;;10.60;99.90;;;;;;5047444;28;20228;-79
2021/09/20 03:21:45;;;;;;;1.23;1.13;;;10.60;99.90;;;;;;5047342;28;20609;-80
2021/09/20 03:24:12;;;;;;;1.10;1.00;;;10.60;99.90;;;;;;5046183;28;20543;-79
2021/09/20 03:26:39;;;;;;;1.40;1.30;;;10.60;99.90;;;;;;5046655;28;20205;-79
2021/09/20 03:29:05;;;;;;;1.57;1.20;;;10.60;99.90;;;;;;5047175;28;20166;-80
2021/09/20 03:31:30;;;;;;;1.53;1.10;;;10.60;99.90;;;;;;5045630;28;20553;-80
2021/09/20 03:33:56;;;;;;;1.20;1.10;;;10.60;99.90;;;;;;5047646;28;20171;-79
2021/09/20 03:36:22;;;;;;;1.20;1.10;;;10.70;99.90;;;;;;5045629;28;20726;-80
2021/09/20 03:38:48;;;;;;;1.20;1.00;;;10.70;99.90;;;;;;5045297;28;20181;-80
2021/09/20 03:41:13;;;;;;;1.47;1.03;;;10.70;99.90;;;;;;5046979;28;20194;-79
2021/09/20 03:43:39;;;;;;;0.90;0.90;;;10.70;99.90;;;;;;5045727;28;20181;-79
2021/09/20 03:46:05;;;;;;;1.20;1.10;;;10.60;99.90;;;;;;5045827;28;20546;-79
2021/09/20 03:48:31;;;;;;;1.47;1.37;;;10.60;99.90;;;;;;5047576;28;20166;-80
2021/09/20 03:50:56;;;;;;;1.17;1.07;;;10.60;99.90;;;;;;5046919;28;20204;-79
2021/09/20 03:53:22;;;;;;;1.17;1.07;;;10.70;99.90;;;;;;5045890;28;20632;-79
2021/09/20 03:55:48;;;;;;;1.20;1.10;;;10.60;99.90;;;;;;5046072;28;20185;-79
2021/09/20 03:58:13;;;;;;;1.33;1.23;;;10.60;99.90;;;;;;5047545;28;20178;-80
2021/09/20 04:00:39;;;;;;;0.93;0.93;;;10.70;99.90;;;;;;5050247;28;20205;-79
2021/09/20 04:03:05;;;;;;;1.30;1.20;;;10.70;99.90;;;;;;5048782;28;20209;-79
2021/09/20 04:05:31;;;;;;;1.27;1.17;;;;;;;;;;5046389;28;20170;-79
2021/09/20 04:07:56;;;;;;;2.07;1.37;;;10.80;99.90;;;;;;5046269;28;20260;-80
2021/09/20 04:10:22;;;;;;;1.40;1.27;;;10.70;99.90;;;;;;5046265;28;20178;-80
2021/09/20 04:12:48;;;;;;;1.17;1.07;;;10.70;99.90;;;;;;5046441;28;20185;-79
2021/09/20 04:15:14;;;;;;;1.37;1.17;;;10.70;99.90;;;;;;5045086;28;20240;-80
2021/09/20 04:17:40;;;;;;;1.73;1.03;;;10.70;99.90;;;;;;5045380;28;20240;-79
2021/09/20 04:20:06;;;;;;;3.77;1.30;;;10.70;99.90;;;;;;5044779;28;20182;-79
2021/09/20 04:22:32;;;;;;;1.30;1.20;;;10.70;99.90;;;;;;5045684;28;20210;-80
2021/09/20 04:24:57;;;;;;;1.90;1.03;;;10.70;99.90;;;;;;5046544;28;20253;-80
2021/09/20 04:27:23;;;;;;;1.60;1.50;;;10.70;99.90;;;;;;5045361;28;20217;-80
2021/09/20 04:29:49;;;;;;;1.20;1.10;;;10.70;99.90;;;;;;5045671;28;20178;-80
2021/09/20 04:32:15;;;;;;;1.43;1.30;;;10.70;99.90;;;;;;5045578;28;20194;-80
2021/09/20 04:34:40;;;;;;;1.40;1.30;;;10.70;99.90;;;;;;5047369;28;20197;-80
2021/09/20 04:37:06;;;;;;;1.13;1.00;;;10.70;99.90;;;;;;5048283;28;20198;-80
2021/09/20 04:39:32;;;;;;;1.30;1.17;;;10.70;99.90;;;;;;5049330;28;20213;-80
2021/09/20 04:41:58;;;;;;;1.50;1.30;;;10.70;99.90;;;;;;5045986;28;20206;-80
2021/09/20 04:44:24;;;;;;;1.73;1.57;;;10.70;99.90;;;;;;5047040;28;20161;-79
2021/09/20 04:46:50;;;;;;;1.23;1.07;;;10.70;99.90;;;;;;5045482;28;20201;-80
2021/09/20 04:49:15;;;;;;;1.20;1.10;;;10.80;99.90;;;;;;5046369;28;20186;-79
2021/09/20 04:51:41;;;;;;;1.30;1.20;;;10.80;99.90;;;;;;5046698;28;20174;-81
2021/09/20 04:54:07;;;;;;;2.30;1.60;;;10.80;99.90;;;;;;5045452;28;20174;-79
2021/09/20 04:56:33;;;;;;;1.53;1.30;;;10.80;99.90;;;;;;5046062;28;20198;-80
2021/09/20 04:58:59;;;;;;;2.27;1.60;;;10.80;99.90;;;;;;5047765;28;20185;-80
2021/09/20 05:01:24;;;;;;;6.80;3.63;;;10.80;99.90;;;;;;5046719;28;20293;-80
2021/09/20 05:03:50;;;;;;;3.13;2.73;;;10.80;99.90;;;;;;5048033;28;20178;-80
2021/09/20 05:06:16;;;;;;;3.87;1.90;;;10.80;99.90;;;;;;5045573;28;20194;-80
2021/09/20 05:08:41;;;;;;;1.70;1.60;;;10.80;99.90;;;;;;5043465;28;20205;-81
2021/09/20 05:11:07;;;;;;;3.57;2.00;;;10.80;99.90;;;;;;5043264;28;20185;-81
2021/09/20 05:13:33;;;;;;;2.27;1.70;;;10.80;99.90;;;;;;5044138;28;20189;-81
2021/09/20 05:15:59;;;;;;;1.83;1.73;;;10.80;99.90;;;;;;5044150;28;20198;-81
2021/09/20 05:18:24;;;;;;;2.10;1.90;;;10.80;99.90;;;;;;5041404;28;20261;-81
2021/09/20 05:20:50;;;;;;;1.80;1.70;;;10.80;99.90;;;;;;5037883;28;20236;-81
2021/09/20 05:23:16;;;;;;;2.37;1.77;;;10.80;99.90;;;;;;5034568;28;20236;-81
2021/09/20 05:25:42;;;;;;;1.87;1.60;;;10.80;99.90;;;;;;5037162;28;20166;-80
2021/09/20 05:28:08;;;;;;;2.50;1.67;;;10.80;99.90;;;;;;5042617;28;20671;-81
2021/09/20 05:30:33;;;;;;;1.60;1.50;;;10.80;99.90;;;;;;5043029;28;20177;-82
2021/09/20 05:32:59;;;;;;;1.70;1.50;;;10.80;99.90;;;;;;5041479;28;20245;-81
2021/09/20 05:35:25;;;;;;;1.30;1.20;;;10.80;99.90;;;;;;5040926;28;20178;-81
2021/09/20 05:37:51;;;;;;;1.40;1.30;;;10.80;99.90;;;;;;5043530;28;20188;-80
2021/09/20 05:40:17;;;;;;;1.27;1.17;;;10.80;99.90;;;;;;5035401;28;20170;-81
2021/09/20 05:42:44;;;;;;;1.47;1.27;;;10.80;99.90;;;;;;5038180;28;20683;-81
2021/09/20 05:45:10;;;;;;;1.30;1.20;;;10.80;99.90;;;;;;5043872;28;20178;-82
2021/09/20 05:47:37;;;;;;;1.90;1.20;;;10.80;99.90;;;;;;5029140;28;20666;-79
2021/09/20 05:50:04;;;;;;;1.93;1.40;;;10.90;99.90;;;;;;5038990;28;20185;-80
2021/09/20 05:52:30;;;;;;;1.60;1.20;;;10.90;99.90;;;;;;5037662;28;20188;-80
2021/09/20 05:54:55;;;;;;;1.60;1.23;;;10.90;99.90;;;;;;5037964;28;20203;-80
2021/09/20 05:57:21;;;;;;;1.93;1.43;;;10.90;99.90;;;;;;5036935;28;20289;-80
2021/09/20 05:59:50;;;;;;;1.70;1.50;;;10.90;99.90;;;;;;5017620;28;20193;-79
2021/09/20 06:02:17;;;;;;;1.60;1.50;;;10.90;99.90;;;;;;5017358;28;20214;-80
2021/09/20 06:04:43;;;;;;;13.37;10.83;;;10.90;99.90;;;;;;5019696;28;20183;-81
2021/09/20 06:07:08;;;;;;;6.93;6.30;;;10.90;99.90;;;;;;5037739;28;20690;-81
2021/09/20 06:09:35;;;;;;;2.73;2.17;;;;;;;;;;5039553;28;20180;-81
2021/09/20 06:12:03;;;;;;;2.30;1.50;;;11.00;99.90;;;;;;5022165;28;20190;-82
2021/09/20 06:14:29;;;;;;;3.23;2.53;;;11.00;99.90;;;;;;5022658;28;20640;-81
2021/09/20 06:16:54;;;;;;;1.50;1.40;;;11.00;99.90;;;;;;5025878;28;20212;-81
2021/09/20 06:19:20;;;;;;;2.03;1.50;;;11.00;99.90;;;;;;5024024;28;20625;-81
2021/09/20 06:21:46;;;;;;;1.90;1.40;;;11.00;99.90;;;;;;5021549;28;20205;-81
2021/09/20 06:24:11;;;;;;;1.40;1.30;;;11.10;99.90;;;;;;5027994;28;20186;-80
2021/09/20 06:26:37;;;;;;;2.40;1.83;;;11.00;99.90;;;;;;5028199;28;20234;-81
2021/09/20 06:29:03;;;;;;;3.60;1.80;;;11.10;99.90;;;;;;5026270;28;20185;-81
2021/09/20 06:31:29;;;;;;;2.00;1.67;;;11.10;99.90;;;;;;5027307;28;20246;-81
2021/09/20 06:33:54;;;;;;;4.60;3.30;;;11.10;99.90;;;;;;5026487;28;20189;-81
2021/09/20 06:36:20;;;;;;;5.43;4.03;;;11.10;99.90;;;;;;5026556;28;20218;-81
2021/09/20 06:38:46;;;;;;;10.43;7.23;;;11.10;99.90;;;;;;5028870;28;20592;-81
2021/09/20 06:41:11;;;;;;;8.90;6.73;;;11.10;99.90;;;;;;5027259;28;20230;-81
2021/09/20 06:43:37;;;;;;;10.57;8.03;;;11.20;99.90;;;;;;5027144;28;20179;-81
2021/09/20 06:46:03;;;;;;;11.10;7.47;;;11.20;99.90;;;;;;5030382;28;20194;-81
2021/09/20 06:48:29;;;;;;;6.50;5.63;;;11.30;99.90;;;;;;5029200;28;20246;-81
2021/09/20 06:50:54;;;;;;;4.53;3.40;;;11.30;99.90;;;;;;5027408;28;20206;-81
2021/09/20 06:53:20;;;;;;;5.53;4.70;;;11.30;99.90;;;;;;5026845;28;20246;-81
2021/09/20 06:55:46;;;;;;;3.50;2.80;;;11.30;99.90;;;;;;5026220;28;20246;-81
2021/09/20 06:58:11;;;;;;;8.63;3.73;;;11.30;99.90;;;;;;5026154;28;20183;-81
2021/09/20 07:00:37;;;;;;;6.87;2.97;;;11.30;99.90;;;;;;5028047;28;20258;-81
2021/09/20 07:03:03;;;;;;;9.97;2.87;;;11.30;99.90;;;;;;5028249;28;20183;-81
2021/09/20 07:05:28;;;;;;;3.93;2.93;;;11.30;99.90;;;;;;5028481;28;20202;-81
2021/09/20 07:07:55;;;;;;;3.83;2.77;;;11.30;99.90;;;;;;5028561;28;20210;-81
2021/09/20 07:10:21;;;;;;;6.37;3.70;;;11.30;99.90;;;;;;5026486;28;20259;-81
2021/09/20 07:12:47;;;;;;;4.53;2.93;;;11.30;99.90;;;;;;5029171;28;20178;-81
2021/09/20 07:15:14;;;;;;;8.27;3.47;;;11.40;99.90;;;;;;5028168;28;20183;-81
2021/09/20 07:17:40;;;;;;;8.77;3.73;;;11.40;99.90;;;;;;5029837;28;20203;-81
2021/09/20 07:20:07;;;;;;;6.30;3.67;;;11.50;99.90;;;;;;5029497;28;20620;-81
2021/09/20 07:22:32;;;;;;;7.87;4.40;;;11.50;99.90;;;;;;5027639;28;20216;-81
2021/09/20 07:24:58;;;;;;;6.07;3.90;;;11.50;99.90;;;;;;5028934;28;20203;-81
2021/09/20 07:27:24;;;;;;;6.10;4.23;;;11.60;99.90;;;;;;5026629;28;20736;-81
2021/09/20 07:29:50;;;;;;;8.13;5.07;;;11.60;99.90;;;;;;5026349;28;20276;-81
2021/09/20 07:32:17;;;;;;;8.10;6.00;;;11.70;99.90;;;;;;5027126;28;20206;-81
2021/09/20 07:34:42;;;;;;;6.77;4.30;;;11.80;99.90;;;;;;5030475;28;20182;-81
2021/09/20 07:37:08;;;;;;;7.37;4.20;;;11.90;99.90;;;;;;5037414;28;20214;-81
2021/09/20 07:39:34;;;;;;;5.80;4.53;;;11.90;99.90;;;;;;5035582;28;20227;-81
2021/09/20 07:42:01;;;;;;;5.07;3.77;;;12.00;99.90;;;;;;5033694;28;20210;-81
2021/09/20 07:44:26;;;;;;;5.97;3.83;;;12.00;99.90;;;;;;5030623;28;20744;-80
2021/09/20 07:46:52;;;;;;;4.47;3.37;;;12.20;99.90;;;;;;5022072;28;20230;-81
2021/09/20 07:49:18;;;;;;;4.93;3.40;;;12.20;99.90;;;;;;5021114;28;20240;-81
2021/09/20 07:51:43;;;;;;;4.87;3.60;;;12.20;99.90;;;;;;5021405;28;20179;-81
2021/09/20 07:54:09;;;;;;;6.67;4.37;;;12.30;99.90;;;;;;5020173;28;20194;-81
2021/09/20 07:56:35;;;;;;;5.20;3.93;;;12.40;99.90;;;;;;5019980;28;20207;-81
2021/09/20 07:59:01;;;;;;;4.70;3.27;;;12.40;99.90;;;;;;5019125;28;20207;-81
2021/09/20 08:01:28;;;;;;;5.73;3.63;;;12.40;99.90;;;;;;5018050;28;20725;-80
2021/09/20 08:03:55;;;;;;;27.80;17.73;;;12.40;99.90;;;;;;5017217;28;20547;-81
2021/09/20 08:06:21;;;;;;;34.47;23.43;;;12.70;99.90;;;;;;5016006;28;20567;-80
2021/09/20 08:08:47;;;;;;;11.87;9.27;;;12.70;99.90;;;;;;5016167;28;20174;-81
2021/09/20 08:11:12;;;;;;;7.17;4.97;;;12.90;99.90;;;;;;5015933;28;20175;-81
2021/09/20 08:13:43;;;;;;;7.60;6.73;;;13.20;99.90;;;;;;5018286;28;20179;-81
2021/09/20 08:16:10;;;;;;;9.83;7.57;;;13.30;99.90;;;;;;5025153;28;20202;-81
2021/09/20 08:18:36;;;;;;;10.57;9.47;;;13.30;99.90;;;;;;5026755;28;20691;-81
2021/09/20 08:21:02;;;;;;;6.27;4.60;;;13.20;99.90;;;;;;5026786;28;20225;-81
2021/09/20 08:23:27;;;;;;;8.97;6.10;;;13.20;99.90;;;;;;5025153;28;20175;-81
2021/09/20 08:25:54;;;;;;;6.03;5.00;;;13.20;99.90;;;;;;5022480;28;20191;-81
2021/09/20 08:28:20;;;;;;;4.77;3.93;;;13.20;99.90;;;;;;5022673;28;20199;-81
2021/09/20 08:30:45;;;;;;;7.37;5.10;;;13.20;99.90;;;;;;5024498;28;20175;-81
2021/09/20 08:33:11;;;;;;;5.53;4.43;;;13.30;99.90;;;;;;5025154;28;20171;-81
2021/09/20 08:35:37;;;;;;;5.03;4.00;;;13.40;99.90;;;;;;5022501;28;20179;-81
2021/09/20 08:38:03;;;;;;;5.60;4.90;;;13.40;99.90;;;;;;5022467;28;20174;-81
2021/09/20 08:40:29;;;;;;;3.83;3.43;;;13.60;99.90;;;;;;5023862;28;20199;-81
2021/09/20 08:42:57;;;;;;;4.63;3.57;;;14.10;99.90;;;;;;5018233;28;20735;-81
2021/09/20 08:45:24;;;;;;;5.83;4.17;;;14.80;99.90;;;;;;5017703;28;20171;-81
2021/09/20 08:47:53;;;;;;;5.70;4.30;;;15.10;99.90;;;;;;5023308;28;20203;-81
2021/09/20 08:50:23;;;;;;;4.53;3.93;;;15.00;99.90;;;;;;5024679;28;20202;-81
2021/09/20 08:52:50;;;;;;;7.17;3.40;;;14.80;99.90;;;;;;5023812;28;20186;-81
2021/09/20 08:55:16;;;;;;;6.63;3.97;;;14.70;99.90;;;;;;5025728;28;20175;-81
2021/09/20 08:57:42;;;;;;;4.30;3.13;;;14.70;99.90;;;;;;5025764;28;20230;-82
2021/09/20 09:00:10;;;;;;;4.93;3.43;;;14.80;99.90;;;;;;5025172;28;20186;-81
2021/09/20 09:02:36;;;;;;;4.30;3.50;;;14.80;99.90;;;;;;5024207;28;20570;-81
2021/09/20 09:05:17;;;;;;;5.53;3.80;;;14.80;99.90;;;;;;5026526;28;20175;-81
2021/09/20 09:07:45;;;;;;;3.97;3.23;;;15.00;99.90;;;;;;5028891;28;20557;-81
2021/09/20 09:10:12;;;;;;;4.87;4.10;;;15.40;99.90;;;;;;5024882;28;20186;-81
2021/09/20 09:12:38;;;;;;;3.90;3.10;;;15.70;99.90;;;;;;5022738;28;20184;-81
2021/09/20 09:15:07;;;;;;;3.67;2.97;;;15.90;99.90;;;;;;5023518;28;20289;-81
2021/09/20 09:17:38;;;;;;;4.57;3.73;;;16.10;99.90;;;;;;5023622;28;20207;-81
2021/09/20 09:20:09;;;;;;;6.03;3.90;;;16.10;99.90;;;;;;5025001;28;20210;-81
2021/09/20 09:22:46;;;;;;;5.33;4.00;;;16.00;99.90;;;;;;5024897;28;20233;-82
2021/09/20 09:25:15;;;;;;;4.57;3.30;;;15.90;99.90;;;;;;5024124;28;20182;-81
2021/09/20 09:27:41;;;;;;;4.43;3.40;;;16.10;99.90;;;;;;5023476;28;20215;-82
2021/09/20 09:30:10;;;;;;;3.33;3.00;;;16.30;99.90;;;;;;5025909;28;20176;-81
2021/09/20 09:32:37;;;;;;;4.07;3.40;;;16.10;99.90;;;;;;5027734;28;20184;-81
2021/09/20 09:35:05;;;;;;;3.60;3.30;;;16.00;99.90;;;;;;5027749;28;20172;-81
2021/09/20 09:37:32;;;;;;;4.00;3.30;;;16.00;99.90;;;;;;5024172;28;20216;-82
2021/09/20 09:40:14;;;;;;;4.90;4.00;;;16.00;99.90;;;;;;5024014;28;20191;-82
2021/09/20 09:42:42;;;;;;;4.70;4.13;;;15.80;99.90;;;;;;5023274;28;20253;-81
2021/09/20 09:45:33;;;;;;;4.70;3.93;;;15.80;99.90;;;;;;5024692;28;20200;-82
2021/09/20 09:48:16;;;;;;;6.63;4.40;;;15.90;99.90;;;;;;5024016;28;20173;-82
2021/09/20 09:50:53;;;;;;;6.13;4.50;;;16.30;99.90;;;;;;5024382;28;20521;-82
2021/09/20 09:53:22;;;;;;;5.33;4.83;;;16.80;99.90;;;;;;5024920;28;20191;-81
2021/09/20 09:55:48;;;;;;;5.37;4.17;;;17.20;99.90;;;;;;5025918;28;20178;-84
2021/09/20 09:58:16;;;;;;;4.90;4.33;;;17.10;99.90;;;;;;5025187;28;20209;-81
2021/09/20 10:00:43;;;;;;;4.20;3.63;;;17.20;99.90;;;;;;5025219;28;20197;-81
2021/09/20 10:03:10;;;;;;;4.43;4.03;;;17.30;99.90;;;;;;5023737;28;20219;-81
2021/09/20 10:05:35;;;;;;;5.10;3.90;;;17.20;99.90;;;;;;5024729;28;20185;-81
2021/09/20 10:08:10;;;;;;;5.67;4.20;;;17.20;99.90;;;;;;5024915;28;20259;-81
2021/09/20 10:10:37;;;;;;;4.43;3.27;;;17.10;99.90;;;;;;5024022;28;20185;-81
2021/09/20 10:13:04;;;;;;;4.13;3.03;;;17.40;99.90;;;;;;5024328;28;20179;-82
2021/09/20 10:15:32;;;;;;;3.50;3.20;;;17.90;99.90;;;;;;5023385;28;20175;-82
2021/09/20 10:17:59;;;;;;;4.00;3.60;;;18.30;99.90;;;;;;5025413;28;20230;-82
2021/09/20 10:20:26;;;;;;;4.87;3.73;;;18.20;99.90;;;;;;5024643;28;20202;-82
2021/09/20 10:22:54;;;;;;;3.93;3.37;;;18.30;99.90;;;;;;5024324;28;20265;-82
2021/09/20 10:25:23;;;;;;;3.93;3.57;;;18.20;99.90;;;;;;5021458;28;20182;-82
2021/09/20 10:27:49;;;;;;;3.70;3.37;;;18.30;99.90;;;;;;5020620;28;20219;-79
2021/09/20 10:30:19;;;;;;;4.20;3.80;;;18.80;99.90;;;;;;5021418;28;20212;-82
2021/09/20 10:32:52;;;;;;;5.20;3.47;;;18.70;99.90;;;;;;5020857;28;20186;-80
2021/09/20 10:35:36;;;;;;;3.53;3.20;;;19.00;99.90;;;;;;5019198;28;20186;-82
2021/09/20 10:38:20;;;;;;;4.37;3.67;;;19.10;99.90;;;;;;5017919;28;20191;-82
2021/09/20 10:41:06;;;;;;;3.77;3.27;;;19.10;99.90;;;;;;5018255;28;20187;-79
2021/09/20 10:43:32;;;;;;;3.80;3.40;;;19.60;99.90;;;;;;5017868;28;20175;-80
2021/09/20 10:45:58;;;;;;;3.33;3.03;;;19.60;99.90;;;;;;5017956;28;20203;-80
2021/09/20 10:48:33;;;;;;;3.87;3.43;;;19.70;99.90;;;;;;5018043;28;20301;-80
2021/09/20 10:51:14;;;;;;;4.30;3.90;;;19.30;99.90;;;;;;5018857;28;20170;-80
2021/09/20 10:53:41;;;;;;;4.00;3.60;;;18.80;99.90;;;;;;5016300;28;20183;-80
2021/09/20 10:56:07;;;;;;;4.20;3.80;;;18.20;99.90;;;;;;5017616;28;20286;-80
2021/09/20 10:58:34;;;;;;;4.37;3.70;;;17.90;99.90;;;;;;5015460;28;20628;-80
2021/09/20 11:01:12;;;;;;;5.37;4.13;;;17.50;99.90;;;;;;5013046;28;20527;-80
2021/09/20 11:03:51;;;;;;;3.70;3.40;;;17.20;99.90;;;;;;5017215;28;20174;-81
2021/09/20 11:06:17;;;;;;;3.83;3.47;;;17.10;99.90;;;;;;5017075;28;20194;-81
2021/09/20 11:08:43;;;;;;;4.30;3.90;;;16.90;99.90;;;;;;5018982;28;20175;-82
2021/09/20 11:11:37;;;;;;;3.83;3.30;;;16.80;99.90;;;;;;5025322;28;20187;-82
2021/09/20 11:14:15;;;;;;;4.27;3.40;;;16.70;99.90;;;;;;5025052;28;20187;-82
2021/09/20 11:16:50;;;;;;;3.97;3.63;;;16.50;99.90;;;;;;5026468;28;20562;-82
2021/09/20 11:19:25;;;;;;;6.90;4.07;;;16.50;99.90;;;;;;5026586;28;20715;-82
2021/09/20 11:22:06;;;;;;;4.87;3.90;;;16.40;99.90;;;;;;5026801;28;20672;-80
2021/09/20 11:24:32;;;;;;;6.37;3.97;;;16.10;99.90;;;;;;5027804;28;20170;-80
2021/09/20 11:26:58;;;;;;;4.03;3.63;;;16.00;99.90;;;;;;5027636;28;20213;-80
2021/09/20 11:29:26;;;;;;;4.73;4.23;;;16.00;99.90;;;;;;5024783;28;20269;-80
2021/09/20 11:31:52;;;;;;;3.93;3.53;;;16.00;99.90;;;;;;5025705;28;20172;-80
2021/09/20 11:34:32;;;;;;;3.60;3.17;;;15.90;99.90;;;;;;5024829;28;20184;-80
2021/09/20 11:37:22;;;;;;;4.00;3.60;;;15.90;99.90;;;;;;5026555;28;20202;-80
2021/09/20 11:39:54;;;;;;;3.83;3.07;;;15.70;99.90;;;;;;5025901;28;20252;-80
2021/09/20 11:42:23;;;;;;;4.70;3.37;;;15.70;99.90;;;;;;5024929;28;20235;-80
2021/09/20 11:44:57;;;;;;;4.90;3.87;;;15.80;99.90;;;;;;5024552;28;20180;-80
2021/09/20 11:47:26;;;;;;;4.10;3.60;;;15.90;99.90;;;;;;5026488;28;20218;-80
2021/09/20 11:50:08;;;;;;;4.67;3.53;;;16.00;99.90;;;;;;5026155;28;20258;-80
2021/09/20 11:52:39;;;;;;;5.83;3.37;;;16.20;99.90;;;;;;5025796;28;20180;-80
2021/09/20 11:55:17;;;;;;;3.17;2.87;;;16.30;99.90;;;;;;5023736;28;20189;-80
2021/09/20 11:57:44;;;;;;;3.80;3.03;;;16.60;99.90;;;;;;5024733;28;20203;-80
2021/09/20 12:00:12;;;;;;;10.33;3.60;;;16.80;99.90;;;;;;5024954;28;20184;-80
2021/09/20 12:02:43;;;;;;;2.83;2.53;;;17.20;99.90;;;;;;5023955;28;20204;-80
2021/09/20 12:05:14;;;;;;;3.30;3.00;;;18.10;99.90;;;;;;5024175;28;20180;-80
2021/09/20 12:07:50;;;;;;;3.10;2.80;;;19.00;99.90;;;;;;5024916;28;20212;-80
2021/09/20 12:10:19;;;;;;;3.20;2.60;;;19.50;99.90;;;;;;5025661;28;20192;-80
2021/09/20 12:12:49;;;;;;;4.53;2.50;;;19.40;99.90;;;;;;5026486;28;20541;-81
2021/09/20 12:15:15;;;;;;;4.00;2.83;;;19.60;99.90;;;;;;5023866;28;20185;-80
2021/09/20 12:17:54;;;;;;;3.53;2.43;;;19.80;99.90;;;;;;5023868;28;20203;-81
2021/09/20 12:20:24;;;;;;;3.20;2.40;;;20.10;99.90;;;;;;5025892;28;20179;-80
2021/09/20 12:22:52;;;;;;;5.10;3.00;;;20.10;99.90;;;;;;5026322;28;20269;-80
2021/09/20 12:25:36;;;;;;;3.50;3.20;;;19.80;99.90;;;;;;5025580;28;20175;-80
2021/09/20 12:28:04;;;;;;;3.67;2.80;;;19.10;99.90;;;;;;5027336;28;20641;-80
2021/09/20 12:30:32;;;;;;;3.30;3.00;;;18.90;99.90;;;;;;5026397;28;20171;-80
2021/09/20 12:33:05;;;;;;;2.87;2.67;;;19.10;99.90;;;;;;5017368;28;20182;-77
2021/09/20 12:35:32;;;;;;;3.37;3.00;;;18.90;99.90;;;;;;5014727;28;20609;-77
2021/09/20 12:38:33;;;;;;;3.00;2.70;;;18.90;99.90;;;;;;5014842;28;20195;-77
2021/09/20 12:41:09;;;;;;;2.93;2.60;;;18.80;99.90;;;;;;5007670;28;20190;-78
2021/09/20 12:43:35;;;;;;;3.47;2.57;;;19.20;99.90;;;;;;5014950;28;20166;-77
2021/09/20 12:46:15;;;;;;;10.30;3.30;;;19.00;99.90;;;;;;5014736;28;20571;-77
2021/09/20 12:48:43;;;;;;;3.20;2.90;;;18.60;99.90;;;;;;5015387;28;20167;-79
2021/09/20 12:51:13;;;;;;;3.20;2.80;;;18.10;99.90;;;;;;5022119;28;20180;-79